Time;durP1;ratioP1;P1;durP2;ratioP2;P2;SDS_P1;SDS_P2;PMS_P1;PMS_P2;Temp;Humidity;BMP_temperature;BMP_pressure;BME280_temperature;BME280_humidity;BME280_pressure;Samples;Min_cycle;Max_cycle;Signal;HPM_P1;HPM_P2
2021/04/27 00:00:06;;;;;;;0.40;0.40;;;;;;;1.15;78.89;101255.38;5034795;28;20495;-71
2021/04/27 00:02:32;;;;;;;0.40;0.30;;;;;;;1.21;78.52;101258.00;5035103;28;20431;-71
2021/04/27 00:04:58;;;;;;;1.53;0.57;;;;;;;1.26;78.23;101274.16;5035078;28;20509;-71
2021/04/27 00:07:25;;;;;;;0.50;0.40;;;;;;;1.29;77.98;101254.22;5035233;28;20447;-71
2021/04/27 00:09:51;;;;;;;0.40;0.30;;;;;;;1.21;78.23;101258.00;5034822;28;20495;-71
2021/04/27 00:12:17;;;;;;;0.40;0.30;;;;;;;1.35;77.73;101258.66;5034896;28;20501;-71
2021/04/27 00:14:43;;;;;;;0.40;0.30;;;;;;;1.30;78.52;101255.03;5034862;28;20450;-71
2021/04/27 00:17:09;;;;;;;0.40;0.30;;;;;;;1.30;78.59;101249.69;5034905;28;20518;-71
2021/04/27 00:19:35;;;;;;;0.50;0.50;;;;;;;1.24;78.16;101254.09;5034367;28;20819;-71
2021/04/27 00:22:01;;;;;;;0.40;0.30;;;;;;;1.18;78.74;101257.63;5034750;28;20483;-71
2021/04/27 00:24:31;;;;;;;0.40;0.30;;;;;;;1.21;78.15;101249.19;5034687;28;20443;-70
2021/04/27 00:26:57;;;;;;;0.40;0.30;;;;;;;1.35;77.33;101249.84;5034695;28;20454;-71
2021/04/27 00:29:23;;;;;;;0.40;0.30;;;;;;;1.37;76.54;101253.91;5034347;28;20491;-71
2021/04/27 00:31:49;;;;;;;0.40;0.30;;;;;;;1.24;75.20;101240.75;5034629;28;20438;-71
2021/04/27 00:34:15;;;;;;;1.87;0.97;;;;;;;1.01;77.15;101244.84;5034584;28;20453;-71
2021/04/27 00:36:41;;;;;;;0.40;0.30;;;;;;;0.85;78.72;101242.78;5034466;28;20926;-71
2021/04/27 00:39:07;;;;;;;0.53;0.53;;;;;;;0.84;78.03;101242.97;5033682;28;20984;-71
2021/04/27 00:41:33;;;;;;;0.40;0.30;;;;;;;0.91;77.73;101241.88;5033966;28;20446;-71
2021/04/27 00:44:00;;;;;;;0.40;0.30;;;;;;;1.06;76.61;101248.72;5034361;28;20447;-70
2021/04/27 00:46:26;;;;;;;0.40;0.30;;;;;;;1.11;76.81;101240.88;5034245;28;20451;-70
2021/04/27 00:48:52;;;;;;;0.40;0.40;;;;;;;1.08;76.65;101247.47;5034198;28;20467;-71
2021/04/27 00:51:18;;;;;;;0.40;0.40;;;;;;;0.93;77.68;101241.66;5034059;28;20539;-71
2021/04/27 00:53:45;;;;;;;0.40;0.30;;;;;;;0.84;77.84;101240.31;5034367;28;20443;-71
2021/04/27 00:56:11;;;;;;;0.40;0.30;;;;;;;0.92;76.80;101242.69;5034108;28;20443;-71
2021/04/27 00:58:38;;;;;;;0.50;0.43;;;;;;;0.65;77.71;101237.63;5034014;28;20501;-71
2021/04/27 01:01:04;;;;;;;0.40;0.40;;;;;;;0.70;77.62;101237.78;5033704;28;20435;-71
2021/04/27 01:03:30;;;;;;;0.70;0.50;;;;;;;0.74;76.97;101236.31;5034094;28;20447;-71
2021/04/27 01:05:57;;;;;;;0.50;0.40;;;;;;;0.61;77.85;101224.94;5033953;28;20457;-71
2021/04/27 01:08:32;;;;;;;0.40;0.30;;;;;;;0.58;78.67;101230.75;5033664;28;20979;-71
2021/04/27 01:11:06;;;;;;;0.40;0.30;;;;;;;0.62;78.29;101222.09;5033480;28;20467;-71
2021/04/27 01:13:38;;;;;;;0.50;0.40;;;;;;;0.76;77.63;101222.78;5033466;28;20913;-71
2021/04/27 01:16:07;;;;;;;0.40;0.30;;;;;;;0.79;77.86;101221.50;5033789;28;20431;-70
2021/04/27 01:18:35;;;;;;;0.40;0.30;;;;;;;0.70;78.59;101213.78;5033558;28;20940;-71
2021/04/27 01:21:02;;;;;;;0.40;0.30;;;;;;;0.67;80.05;101221.44;5033702;28;20450;-71
2021/04/27 01:23:47;;;;;;;0.50;0.30;;;;;;;0.56;80.22;101209.63;5033556;28;20451;-71
2021/04/27 01:26:22;;;;;;;0.40;0.30;;;;;;;0.57;80.95;101213.09;5033702;28;20415;-70
2021/04/27 01:28:49;;;;;;;1.20;0.50;;;;;;;0.56;81.13;101211.47;5032857;28;20455;-71
2021/04/27 01:31:16;;;;;;;0.77;0.60;;;;;;;0.73;79.88;101216.03;5033561;28;20486;-71
2021/04/27 01:33:43;;;;;;;0.40;0.30;;;;;;;0.75;79.76;101215.78;5038237;28;20451;-71
2021/04/27 01:36:10;;;;;;;0.40;0.30;;;;;;;0.75;79.14;101218.44;5033694;28;20443;-71
2021/04/27 01:38:36;;;;;;;0.40;0.40;;;;;;;0.68;79.50;101210.53;5033327;28;20447;-71
2021/04/27 01:41:03;;;;;;;0.40;0.30;;;;;;;0.66;79.77;101214.44;5033098;28;21044;-70
2021/04/27 01:43:30;;;;;;;0.40;0.30;;;;;;;0.60;79.83;101208.16;5033308;28;20443;-71
2021/04/27 01:46:00;;;;;;;0.40;0.30;;;;;;;0.68;79.77;101213.19;5033359;28;20439;-71
2021/04/27 01:48:26;;;;;;;0.40;0.30;;;;;;;0.53;79.05;101210.03;5033314;28;20497;-70
2021/04/27 01:50:55;;;;;;;0.40;0.30;;;;;;;0.40;78.79;101208.34;5032953;28;20495;-70
2021/04/27 01:53:22;;;;;;;0.40;0.30;;;;;;;0.55;77.64;101210.66;5033275;28;20447;-71
2021/04/27 01:55:49;;;;;;;0.50;0.40;;;;;;;0.47;76.82;101197.59;5033224;28;20439;-72
2021/04/27 01:58:15;;;;;;;0.40;0.30;;;;;;;0.35;77.97;101202.81;5032987;28;20427;-71
2021/04/27 02:00:42;;;;;;;0.40;0.37;;;;;;;0.29;77.90;101197.56;5032789;28;20466;-71
2021/04/27 02:03:08;;;;;;;0.40;0.30;;;;;;;0.40;76.63;101197.69;5032886;28;20974;-71
2021/04/27 02:05:34;;;;;;;0.40;0.30;;;;;;;0.29;77.35;101194.91;5033139;28;20438;-71
2021/04/27 02:08:01;;;;;;;0.40;0.30;;;;;;;0.24;78.81;101198.22;5033097;28;20505;-71
2021/04/27 02:10:28;;;;;;;0.53;0.50;;;;;;;0.16;79.29;101198.47;5032692;28;20491;-71
2021/04/27 02:12:57;;;;;;;0.40;0.30;;;;;;;0.07;79.94;101195.28;5033185;28;20439;-71
2021/04/27 02:15:25;;;;;;;0.40;0.30;;;;;;;0.09;80.49;101201.22;5033076;28;20466;-71
2021/04/27 02:17:57;;;;;;;0.40;0.30;;;;;;;0.01;80.32;101201.47;5033351;28;20462;-71
2021/04/27 02:20:24;;;;;;;0.40;0.30;;;;;;;-0.04;80.16;101195.97;5033119;28;20462;-71
2021/04/27 02:22:51;;;;;;;0.50;0.40;;;;;;;0.07;80.23;101191.78;5033062;28;20862;-71
2021/04/27 02:25:20;;;;;;;0.50;0.50;;;;;;;0.13;81.44;101194.41;5032662;28;20486;-71
2021/04/27 02:27:46;;;;;;;0.70;0.40;;;;;;;0.10;79.96;101189.53;5032937;28;20821;-71
2021/04/27 02:30:18;;;;;;;0.40;0.30;;;;;;;0.06;79.68;101188.31;5032496;28;20490;-71
2021/04/27 02:32:45;;;;;;;0.47;0.40;;;;;;;0.04;79.96;101190.38;5033141;28;20434;-71
2021/04/27 02:35:14;;;;;;;0.50;0.43;;;;;;;0.04;80.12;101194.88;5032599;28;20975;-72
2021/04/27 02:37:41;;;;;;;0.40;0.30;;;;;;;0.10;79.16;101180.72;5032957;28;20492;-72
2021/04/27 02:40:09;;;;;;;0.80;0.50;;;;;;;0.07;79.15;101173.16;5033075;28;20466;-72
2021/04/27 02:42:36;;;;;;;0.40;0.30;;;;;;;-0.04;79.57;101183.47;5032907;28;20455;-72
2021/04/27 02:45:03;;;;;;;0.40;0.30;;;;;;;-0.10;79.29;101187.00;5032884;28;20447;-71
2021/04/27 02:47:29;;;;;;;0.50;0.50;;;;;;;0.01;78.75;101177.50;5032757;28;20443;-72
2021/04/27 02:49:55;;;;;;;0.57;0.50;;;;;;;0.03;78.50;101183.41;5032697;28;20510;-71
2021/04/27 02:52:22;;;;;;;0.40;0.30;;;;;;;-0.09;79.48;101178.00;5032868;28;20476;-72
2021/04/27 02:54:48;;;;;;;0.40;0.30;;;;;;;0.05;78.42;101184.03;5032817;28;20451;-72
2021/04/27 02:57:14;;;;;;;0.40;0.30;;;;;;;0.01;78.69;101188.16;5032859;28;20451;-72
2021/04/27 02:59:40;;;;;;;0.40;0.30;;;;;;;-0.06;80.01;101177.53;5032689;28;20467;-72
2021/04/27 03:02:06;;;;;;;0.40;0.30;;;;;;;-0.12;81.54;101188.25;5032448;28;20530;-71
2021/04/27 03:04:32;;;;;;;0.50;0.40;;;;;;;-0.12;82.08;101183.75;5035419;28;20438;-71
2021/04/27 03:06:58;;;;;;;0.50;0.40;;;;;;;-0.04;81.33;101188.00;5036065;28;20439;-71
2021/04/27 03:09:25;;;;;;;0.80;0.60;;;;;;;-0.15;82.21;101183.34;5036052;28;20474;-72
2021/04/27 03:11:51;;;;;;;0.40;0.30;;;;;;;-0.20;82.35;101181.34;5036230;28;20451;-72
2021/04/27 03:14:17;;;;;;;0.50;0.40;;;;;;;-0.17;82.71;101180.09;5036204;28;20450;-72
2021/04/27 03:16:43;;;;;;;0.40;0.30;;;;;;;-0.10;82.52;101181.66;5036264;28;20501;-72
2021/04/27 03:19:09;;;;;;;0.40;0.40;;;;;;;-0.10;82.16;101181.66;5036192;28;20463;-72
2021/04/27 03:21:34;;;;;;;0.70;0.60;;;;;;;0.01;80.77;101172.19;5040902;28;20466;-72
2021/04/27 03:24:00;;;;;;;0.40;0.30;;;;;;;0.00;80.87;101167.91;5036335;28;20803;-72
2021/04/27 03:26:27;;;;;;;0.60;0.37;;;;;;;-0.05;81.00;101170.38;5035886;28;20479;-71
2021/04/27 03:31:28;;;;;;;0.40;0.30;;;;;;;-0.03;81.11;101166.47;5077341;22;20557;-63
2021/04/27 03:33:54;;;;;;;0.50;0.40;;;;;;;-0.02;80.28;101170.75;5055620;28;20438;-63
2021/04/27 03:36:20;;;;;;;0.40;0.30;;;;;;;-0.05;79.59;101168.50;5055572;28;20438;-62
2021/04/27 03:38:46;;;;;;;0.70;0.70;;;;;;;-0.17;79.55;101180.91;5055543;28;20438;-63
2021/04/27 03:41:12;;;;;;;0.40;0.30;;;;;;;-0.31;80.46;101169.53;5055451;28;20457;-63
2021/04/27 03:43:38;;;;;;;2.47;0.97;;;;;;;-0.39;80.70;101164.47;5055493;28;20454;-63
2021/04/27 03:46:05;;;;;;;0.40;0.30;;;;;;;-0.35;80.27;101173.66;5055506;28;20468;-63
2021/04/27 03:48:31;;;;;;;0.77;0.60;;;;;;;-0.38;80.59;101171.41;5055529;28;20442;-63
2021/04/27 03:50:57;;;;;;;0.40;0.30;;;;;;;-0.51;80.65;101163.50;5055104;28;20496;-63
2021/04/27 03:53:23;;;;;;;0.40;0.30;;;;;;;-0.46;80.63;101174.31;5055262;28;20446;-62
2021/04/27 03:55:49;;;;;;;0.50;0.50;;;;;;;-0.51;80.97;101168.81;5055288;28;20906;-62
2021/04/27 03:58:15;;;;;;;0.40;0.30;;;;;;;-0.53;81.63;101166.38;5055142;28;20453;-63
2021/04/27 04:00:42;;;;;;;0.40;0.30;;;;;;;-0.37;80.98;101172.22;5055151;28;20827;-62
2021/04/27 04:03:08;;;;;;;0.40;0.30;;;;;;;-0.37;79.83;101173.03;5055035;28;20442;-62
2021/04/27 04:05:34;;;;;;;0.50;0.40;;;;;;;-0.40;80.46;101177.97;5055133;28;20445;-63
2021/04/27 04:08:00;;;;;;;1.00;0.60;;;;;;;-0.47;80.35;101172.69;5055024;28;20441;-64
2021/04/27 04:10:26;;;;;;;0.40;0.30;;;;;;;-0.48;80.33;101173.72;5054839;28;20486;-64
2021/04/27 04:12:52;;;;;;;1.10;1.00;;;;;;;-0.42;81.16;101172.06;5054893;28;20446;-64
2021/04/27 04:15:20;;;;;;;0.40;0.30;;;;;;;-0.41;80.97;101179.00;5054759;28;20449;-66
2021/04/27 04:17:47;;;;;;;0.70;0.60;;;;;;;-0.34;81.12;101171.81;5054813;28;20449;-65
2021/04/27 04:20:17;;;;;;;0.50;0.50;;;;;;;-0.31;82.99;101182.84;5054751;28;20458;-65
2021/04/27 04:22:43;;;;;;;3.27;0.67;;;;;;;-0.29;83.67;101179.97;5054755;28;20469;-65
2021/04/27 04:25:11;;;;;;;0.40;0.30;;;;;;;-0.17;83.60;101178.25;5054690;28;20430;-66
2021/04/27 04:27:38;;;;;;;0.40;0.30;;;;;;;-0.09;83.56;101187.78;5054453;28;21058;-66
2021/04/27 04:30:06;;;;;;;0.40;0.30;;;;;;;-0.06;83.45;101188.19;5054284;28;20490;-66
2021/04/27 04:32:32;;;;;;;0.40;0.30;;;;;;;-0.08;84.13;101190.25;5054608;28;20446;-67
2021/04/27 04:35:00;;;;;;;0.40;0.30;;;;;;;0.05;83.66;101181.38;5054478;28;20434;-66
2021/04/27 04:37:26;;;;;;;0.50;0.40;;;;;;;0.05;83.88;101177.91;5054760;28;20445;-66
2021/04/27 04:39:52;;;;;;;0.40;0.30;;;;;;;0.15;83.42;101179.03;5054348;28;20466;-66
2021/04/27 04:42:17;;;;;;;0.40;0.30;;;;;;;0.22;83.38;101178.97;5054321;28;20441;-66
2021/04/27 04:44:43;;;;;;;0.40;0.30;;;;;;;0.34;83.05;101174.56;5054330;28;20445;-66
2021/04/27 04:47:09;;;;;;;0.50;0.40;;;;;;;0.46;82.64;101185.31;5054310;28;20533;-66
2021/04/27 04:49:35;;;;;;;2.30;0.67;;;;;;;0.45;80.68;101184.50;5054121;28;20504;-66
2021/04/27 04:52:02;;;;;;;0.40;0.40;;;;;;;0.44;79.69;101182.06;5054215;28;20450;-66
2021/04/27 04:54:28;;;;;;;0.70;0.67;;;;;;;0.44;78.99;101184.72;5054122;28;20446;-66
2021/04/27 04:56:54;;;;;;;0.70;0.50;;;;;;;0.42;79.91;101179.63;5054119;28;20442;-66
2021/04/27 04:59:21;;;;;;;0.40;0.30;;;;;;;0.46;79.75;101180.00;5053932;28;20442;-67
2021/04/27 05:01:48;;;;;;;0.40;0.30;;;;;;;0.50;79.95;101181.19;5054004;28;20530;-66
2021/04/27 05:04:14;;;;;;;0.40;0.30;;;;;;;0.55;79.12;101184.00;5053909;28;20439;-66
2021/04/27 05:06:42;;;;;;;0.70;0.50;;;;;;;0.72;78.93;101189.59;5053962;28;20503;-66
2021/04/27 05:09:11;;;;;;;0.40;0.40;;;;;;;0.71;78.69;101185.31;5054037;28;20438;-67
2021/04/27 05:11:37;;;;;;;3.43;1.47;;;;;;;0.91;78.50;101187.75;5053837;28;20608;-66
2021/04/27 05:14:04;;;;;;;0.47;0.37;;;;;;;1.05;78.27;101186.56;5053832;28;20446;-66
2021/04/27 05:16:30;;;;;;;0.50;0.40;;;;;;;1.20;78.45;101181.66;5053594;28;20422;-66
2021/04/27 05:18:58;;;;;;;0.40;0.40;;;;;;;1.32;78.09;101186.22;5053709;28;20442;-65
2021/04/27 05:21:24;;;;;;;0.50;0.40;;;;;;;1.47;76.81;101181.31;5053212;28;20462;-64
2021/04/27 05:23:50;;;;;;;0.60;0.60;;;;;;;1.60;75.89;101181.16;5053534;28;20435;-62
2021/04/27 05:26:17;;;;;;;2.20;0.80;;;;;;;1.78;75.63;101174.94;5053213;28;20438;-62
2021/04/27 05:28:43;;;;;;;0.57;0.50;;;;;;;1.92;75.22;101181.69;5053470;28;20449;-62
2021/04/27 05:31:09;;;;;;;0.80;0.70;;;;;;;2.08;74.32;101180.25;5053197;28;20486;-63
2021/04/27 05:33:35;;;;;;;0.40;0.30;;;;;;;2.24;73.42;101187.56;5053471;28;20495;-62
2021/04/27 05:36:02;;;;;;;0.67;0.40;;;;;;;2.43;72.68;101182.09;5053452;28;20445;-63
2021/04/27 05:38:28;;;;;;;0.50;0.40;;;;;;;2.57;72.30;101180.84;5053317;28;20449;-62
2021/04/27 05:40:54;;;;;;;0.43;0.40;;;;;;;2.72;71.47;101183.84;5053016;28;20450;-62
2021/04/27 05:43:21;;;;;;;0.40;0.40;;;;;;;2.91;71.19;101181.03;5053252;28;20820;-63
2021/04/27 05:45:47;;;;;;;0.70;0.50;;;;;;;3.07;70.02;101184.88;5053087;28;20966;-62
2021/04/27 05:48:13;;;;;;;0.67;0.60;;;;;;;3.20;69.77;101184.59;5053275;28;20858;-63
2021/04/27 05:50:39;;;;;;;0.70;0.70;;;;;;;3.36;68.78;101185.69;5053276;28;20500;-63
2021/04/27 05:53:06;;;;;;;1.83;1.37;;;;;;;3.53;68.00;101186.56;5053292;28;20469;-63
2021/04/27 05:55:35;;;;;;;2.57;0.50;;;;;;;3.67;66.62;101185.22;5052893;28;20973;-62
2021/04/27 05:58:01;;;;;;;0.40;0.40;;;;;;;3.85;66.39;101186.06;5053131;28;20823;-62
2021/04/27 06:00:31;;;;;;;1.13;0.50;;;;;;;4.00;65.85;101189.03;5052764;28;20464;-62
2021/04/27 06:02:57;;;;;;;0.40;0.40;;;;;;;4.11;65.50;101190.00;5053114;28;20450;-60
2021/04/27 06:05:23;;;;;;;0.60;0.40;;;;;;;4.24;64.20;101181.63;5053089;28;20474;-62
2021/04/27 06:07:49;;;;;;;0.80;0.67;;;;;;;4.37;63.68;101194.72;5053016;28;20446;-64
2021/04/27 06:10:15;;;;;;;0.50;0.50;;;;;;;4.44;63.15;101194.56;5052957;28;20482;-64
2021/04/27 06:12:41;;;;;;;0.77;0.70;;;;;;;4.52;63.05;101192.28;5053170;28;20446;-63
2021/04/27 06:15:08;;;;;;;0.40;0.30;;;;;;;4.61;63.05;101189.19;5053047;28;20484;-65
2021/04/27 06:17:35;;;;;;;0.60;0.40;;;;;;;4.75;61.68;101196.63;5053019;28;20450;-64
2021/04/27 06:20:04;;;;;;;0.50;0.50;;;;;;;4.85;61.07;101192.47;5052789;28;20524;-64
2021/04/27 06:22:30;;;;;;;0.97;0.97;;;;;;;4.94;61.12;101194.47;5052942;28;20441;-64
2021/04/27 06:24:56;;;;;;;0.60;0.47;;;;;;;5.04;60.55;101199.16;5053008;28;20469;-64
2021/04/27 06:27:27;;;;;;;0.93;0.83;;;;;;;5.14;60.16;101210.03;5053040;28;20446;-64
2021/04/27 06:29:54;;;;;;;1.13;0.67;;;;;;;5.24;60.27;101188.69;5052296;28;20493;-64
2021/04/27 06:32:20;;;;;;;0.60;0.60;;;;;;;5.36;60.22;101187.72;5052563;28;20487;-65
2021/04/27 06:34:47;;;;;;;3.53;0.80;;;;;;;5.40;60.17;101196.91;5052879;28;20450;-63
2021/04/27 06:37:13;;;;;;;3.13;0.80;;;;;;;5.51;59.53;101190.59;5052870;28;20503;-64
2021/04/27 06:39:39;;;;;;;0.40;0.30;;;;;;;5.59;57.99;101198.22;5056144;28;20500;-64
2021/04/27 06:42:06;;;;;;;0.50;0.50;;;;;;;5.74;57.97;101192.97;5056650;28;20441;-64
2021/04/27 06:44:32;;;;;;;0.60;0.50;;;;;;;5.86;57.30;101189.34;5056863;28;20445;-64
2021/04/27 06:46:58;;;;;;;0.97;0.50;;;;;;;5.97;55.28;101196.44;5056612;28;20821;-64
2021/04/27 06:49:24;;;;;;;0.83;0.83;;;;;;;6.05;55.21;101198.69;5056121;28;20465;-64
2021/04/27 06:51:51;;;;;;;0.50;0.40;;;;;;;6.18;55.00;101192.88;5056298;28;20489;-64
2021/04/27 06:54:18;;;;;;;0.80;0.50;;;;;;;6.26;55.73;101196.97;5056394;28;20453;-65
2021/04/27 06:56:43;;;;;;;1.17;0.40;;;;;;;6.38;55.57;101196.81;5056386;28;20442;-66
2021/04/27 06:59:12;;;;;;;0.90;0.63;;;;;;;6.50;54.63;101200.91;5056253;28;20815;-64
2021/04/27 07:01:38;;;;;;;0.50;0.47;;;;;;;6.56;54.41;101193.72;5056349;28;20446;-65
2021/04/27 07:04:04;;;;;;;0.50;0.40;;;;;;;6.60;54.45;101200.19;5056155;28;20442;-65
2021/04/27 07:06:30;;;;;;;1.20;0.80;;;;;;;6.64;54.19;101201.31;5056151;28;20449;-64
2021/04/27 07:08:57;;;;;;;0.70;0.70;;;;;;;6.62;52.29;101195.34;5056131;28;20460;-65
2021/04/27 07:11:23;;;;;;;0.60;0.60;;;;;;;6.71;53.21;101195.69;5055988;28;20481;-64
2021/04/27 07:13:49;;;;;;;0.40;0.30;;;;;;;6.70;52.85;101186.78;5055708;28;20476;-64
2021/04/27 07:16:17;;;;;;;0.60;0.50;;;;;;;6.82;52.29;101182.03;5056042;28;20442;-63
2021/04/27 07:18:43;;;;;;;0.47;0.37;;;;;;;6.89;52.04;101191.75;5055953;28;20446;-63
2021/04/27 07:21:09;;;;;;;0.60;0.40;;;;;;;6.98;51.55;101195.56;5055744;28;20458;-63
2021/04/27 07:23:35;;;;;;;0.53;0.50;;;;;;;7.06;49.89;101197.75;5055564;28;20860;-65
2021/04/27 07:26:04;;;;;;;0.60;0.47;;;;;;;7.10;50.13;101193.47;5055779;28;20849;-65
2021/04/27 07:28:30;;;;;;;0.77;0.60;;;;;;;7.18;48.75;101195.66;5055837;28;20447;-64
2021/04/27 07:30:56;;;;;;;0.60;0.60;;;;;;;7.33;49.40;101192.22;5055536;28;20494;-64
2021/04/27 07:33:22;;;;;;;0.60;0.47;;;;;;;7.36;48.81;101193.56;5055759;28;20456;-64
2021/04/27 07:35:48;;;;;;;0.60;0.40;;;;;;;7.47;48.10;101189.81;5055564;28;20532;-64
2021/04/27 07:38:14;;;;;;;0.40;0.30;;;;;;;7.54;47.53;101193.09;5055569;28;20453;-64
2021/04/27 07:40:40;;;;;;;2.63;0.60;;;;;;;7.60;47.18;101192.00;5055496;28;20469;-64
2021/04/27 07:43:07;;;;;;;0.50;0.30;;;;;;;7.63;47.13;101194.19;5055637;28;20525;-64
2021/04/27 07:45:34;;;;;;;0.50;0.40;;;;;;;7.73;45.83;101194.19;5055459;28;20438;-64
2021/04/27 07:48:01;;;;;;;0.40;0.40;;;;;;;7.78;45.19;101199.59;5055046;28;20450;-65
2021/04/27 07:50:28;;;;;;;2.00;0.80;;;;;;;7.90;45.19;101199.34;5054948;28;20485;-64
2021/04/27 07:52:54;;;;;;;1.83;0.60;;;;;;;7.99;45.56;101188.84;5055400;28;20843;-64
2021/04/27 07:55:21;;;;;;;0.47;0.30;;;;;;;8.08;45.72;101188.03;5054953;28;20939;-65
2021/04/27 07:57:47;;;;;;;1.00;0.83;;;;;;;8.16;45.39;101188.59;5055326;28;20461;-64
2021/04/27 08:00:15;;;;;;;0.50;0.40;;;;;;;8.16;44.98;101194.81;5055118;28;20901;-65
2021/04/27 08:02:42;;;;;;;0.67;0.53;;;;;;;8.19;44.69;101194.28;5055119;28;20442;-64
2021/04/27 08:05:10;;;;;;;0.50;0.40;;;;;;;8.19;44.56;101191.56;5055152;28;20446;-64
2021/04/27 08:07:37;;;;;;;0.60;0.60;;;;;;;8.17;44.47;101187.50;5055051;28;20450;-64
2021/04/27 08:10:05;;;;;;;0.80;0.70;;;;;;;8.16;45.09;101186.72;5054841;28;20467;-64
2021/04/27 08:12:31;;;;;;;0.40;0.30;;;;;;;8.18;43.10;101189.13;5054934;28;20454;-65
2021/04/27 08:14:57;;;;;;;0.40;0.30;;;;;;;8.23;43.46;101183.72;5054797;28;20449;-64
2021/04/27 08:17:24;;;;;;;0.60;0.47;;;;;;;8.33;41.94;101183.75;5055059;28;20442;-65
2021/04/27 08:19:51;;;;;;;0.50;0.40;;;;;;;8.35;40.80;101193.16;5054710;28;20470;-65
2021/04/27 08:22:18;;;;;;;0.70;0.47;;;;;;;8.57;45.62;101189.41;5054746;28;20493;-65
2021/04/27 08:24:45;;;;;;;0.73;0.73;;;;;;;8.80;44.10;101185.28;5054635;28;20438;-65
2021/04/27 08:27:12;;;;;;;0.60;0.37;;;;;;;8.99;44.92;101188.22;5054674;28;20446;-65
2021/04/27 08:29:38;;;;;;;0.60;0.37;;;;;;;9.16;43.15;101185.97;5054236;28;20470;-65
2021/04/27 08:32:05;;;;;;;0.70;0.63;;;;;;;9.32;43.01;101184.03;5054433;28;20486;-65
2021/04/27 08:34:32;;;;;;;0.60;0.60;;;;;;;9.42;41.93;101191.28;5054451;28;20495;-65
2021/04/27 08:36:58;;;;;;;0.50;0.40;;;;;;;9.43;43.70;101184.78;5054659;28;20450;-64
2021/04/27 08:39:25;;;;;;;1.70;0.77;;;;;;;9.54;43.18;101175.53;5054373;28;20438;-65
2021/04/27 08:41:51;;;;;;;0.80;0.60;;;;;;;9.63;42.71;101184.69;5054251;28;20859;-65
2021/04/27 08:44:17;;;;;;;0.50;0.40;;;;;;;9.50;38.33;101179.88;5054184;28;20435;-65
2021/04/27 08:46:44;;;;;;;1.50;0.63;;;;;;;9.40;40.81;101180.75;5054008;28;20438;-65
2021/04/27 08:49:10;;;;;;;1.33;0.90;;;;;;;9.59;41.76;101179.00;5054228;28;20484;-65
2021/04/27 08:51:37;;;;;;;0.40;0.30;;;;;;;9.72;41.69;101174.88;5053973;28;20486;-65
2021/04/27 08:54:04;;;;;;;1.07;0.60;;;;;;;9.82;40.57;101176.72;5053913;28;20944;-67
2021/04/27 08:56:30;;;;;;;0.87;0.43;;;;;;;9.90;40.35;101172.59;5053950;28;20444;-65
2021/04/27 08:58:56;;;;;;;0.67;0.50;;;;;;;9.93;40.06;101162.03;5053597;28;20446;-66
2021/04/27 09:01:22;;;;;;;0.50;0.40;;;;;;;9.98;40.98;101166.59;5053208;28;20489;-66
2021/04/27 09:03:51;;;;;;;0.60;0.40;;;;;;;10.04;40.00;101173.56;5053973;28;20438;-65
2021/04/27 09:06:19;;;;;;;0.70;0.40;;;;;;;10.01;39.04;101163.34;5054197;28;20446;-65
2021/04/27 09:08:47;;;;;;;0.57;0.40;;;;;;;10.13;40.04;101154.81;5053858;28;20446;-65
2021/04/27 09:11:31;;;;;;;0.50;0.40;;;;;;;10.06;40.24;101155.97;5053662;28;20525;-65
2021/04/27 09:14:12;;;;;;;0.50;0.50;;;;;;;10.17;40.72;101156.69;5053774;28;20423;-65
2021/04/27 09:16:39;;;;;;;0.90;0.73;;;;;;;10.27;39.67;101147.69;5053809;28;20454;-66
2021/04/27 09:19:06;;;;;;;0.40;0.30;;;;;;;10.35;39.73;101152.47;5053722;28;20449;-65
2021/04/27 09:21:33;;;;;;;0.60;0.60;;;;;;;10.41;39.45;101150.56;5053404;28;20959;-65
2021/04/27 09:24:12;;;;;;;0.50;0.40;;;;;;;10.44;37.54;101149.97;5053641;28;20442;-65
2021/04/27 09:26:37;;;;;;;0.60;0.47;;;;;;;10.48;39.29;101138.28;5053653;28;20438;-65
2021/04/27 09:29:03;;;;;;;0.40;0.30;;;;;;;10.57;38.65;101143.88;5053874;28;20454;-66
2021/04/27 09:31:31;;;;;;;1.10;0.60;;;;;;;10.63;36.12;101136.53;5078141;22;20560;-68
2021/04/27 09:34:19;;;;;;;0.60;0.40;;;;;;;10.67;37.40;101132.94;5053002;28;20986;-67
2021/04/27 09:36:46;;;;;;;1.00;0.60;;;;;;;10.72;37.53;101138.31;5053493;28;20433;-68
2021/04/27 09:39:13;;;;;;;0.80;0.50;;;;;;;10.71;36.82;101136.66;5053511;28;20445;-68
2021/04/27 09:41:39;;;;;;;0.50;0.40;;;;;;;10.76;38.30;101131.22;5053256;28;20454;-68
2021/04/27 09:44:24;;;;;;;0.50;0.40;;;;;;;10.85;38.19;101136.81;5053323;28;20446;-69
2021/04/27 09:47:12;;;;;;;1.27;0.60;;;;;;;10.90;37.63;101127.81;5053242;28;20480;-68
2021/04/27 09:49:38;;;;;;;0.83;0.50;;;;;;;10.91;36.79;101110.44;5053066;28;20903;-68
2021/04/27 09:52:09;;;;;;;0.40;0.30;;;;;;;10.90;37.18;101120.47;5053253;28;20486;-67
2021/04/27 09:54:58;;;;;;;0.83;0.50;;;;;;;10.99;37.43;101116.03;5053166;28;20446;-68
2021/04/27 09:57:28;;;;;;;1.80;0.60;;;;;;;11.03;36.63;101103.50;5052997;28;20437;-67
2021/04/27 09:59:54;;;;;;;0.87;0.30;;;;;;;10.95;35.69;101111.47;5053060;28;20873;-68
2021/04/27 10:02:21;;;;;;;0.40;0.30;;;;;;;10.98;37.82;101105.47;5053069;28;20540;-68
2021/04/27 10:04:49;;;;;;;0.70;0.40;;;;;;;11.07;36.50;101103.75;5053229;28;20811;-68
2021/04/27 10:07:16;;;;;;;0.90;0.60;;;;;;;11.14;37.46;101100.66;5052733;28;21041;-67
2021/04/27 10:09:45;;;;;;;1.00;0.73;;;;;;;11.20;36.56;101099.47;5053090;28;20477;-68
2021/04/27 10:12:11;;;;;;;1.13;1.03;;;;;;;11.32;37.77;101103.38;5053743;28;20501;-68
2021/04/27 10:14:37;;;;;;;0.50;0.40;;;;;;;11.47;37.51;101093.41;5056791;28;20991;-68
2021/04/27 10:17:03;;;;;;;0.50;0.40;;;;;;;11.44;35.92;101091.28;5056796;28;20434;-67
2021/04/27 10:19:30;;;;;;;0.93;0.80;;;;;;;11.41;36.32;101091.88;5056770;28;20812;-68
2021/04/27 10:21:55;;;;;;;1.17;0.50;;;;;;;11.48;37.60;101095.03;5056866;28;20528;-68
2021/04/27 10:24:24;;;;;;;0.73;0.60;;;;;;;11.66;37.46;101079.81;5056661;28;20450;-68
2021/04/27 10:26:51;;;;;;;0.50;0.40;;;;;;;11.73;37.51;101077.53;5056901;28;20434;-68
2021/04/27 10:29:20;;;;;;;0.60;0.60;;;;;;;11.88;37.93;101081.94;5056962;28;20453;-68
2021/04/27 10:31:48;;;;;;;0.80;0.40;;;;;;;12.05;37.36;101069.41;5056566;28;20490;-68
2021/04/27 10:34:15;;;;;;;0.53;0.47;;;;;;;12.12;37.70;101072.53;5056810;28;20446;-68
2021/04/27 10:37:06;;;;;;;0.60;0.60;;;;;;;12.20;35.97;101054.75;5056730;28;20454;-68
2021/04/27 10:39:37;;;;;;;0.60;0.40;;;;;;;12.21;36.80;101061.78;5056512;28;20978;-70
2021/04/27 10:42:16;;;;;;;0.50;0.40;;;;;;;12.36;34.98;101050.63;5056447;28;20822;-69
2021/04/27 10:44:51;;;;;;;0.57;0.40;;;;;;;12.55;37.00;101060.59;5056561;28;20418;-69
2021/04/27 10:47:18;;;;;;;0.90;0.40;;;;;;;12.78;36.43;101058.78;5056616;28;20422;-69
2021/04/27 10:49:44;;;;;;;0.40;0.30;;;;;;;12.84;35.36;101057.56;5056478;28;20453;-69
2021/04/27 10:52:28;;;;;;;0.90;0.50;;;;;;;13.03;34.69;101052.00;5056403;28;20520;-70
2021/04/27 10:55:25;;;;;;;0.60;0.50;;;;;;;13.06;34.27;101049.47;5056522;28;20533;-69
2021/04/27 10:57:52;;;;;;;1.43;0.50;;;;;;;13.04;32.64;101050.88;5056520;28;20434;-69
2021/04/27 11:00:36;;;;;;;0.50;0.40;;;;;;;13.04;32.31;101045.44;5056015;28;21101;-69
2021/04/27 11:03:16;;;;;;;0.60;0.50;;;;;;;13.25;35.15;101041.16;5055957;28;20962;-68
2021/04/27 11:05:53;;;;;;;0.50;0.40;;;;;;;13.47;33.75;101032.22;5056366;28;20492;-68
2021/04/27 11:08:20;;;;;;;2.50;0.93;;;;;;;13.66;34.29;101029.28;5056394;28;20521;-69
2021/04/27 11:10:49;;;;;;;1.70;0.40;;;;;;;13.80;34.33;101019.13;5058268;28;20515;-68
2021/04/27 11:13:16;;;;;;;0.70;0.43;;;;;;;14.22;34.34;101019.66;5058577;28;20442;-69
2021/04/27 11:15:44;;;;;;;0.90;0.57;;;;;;;14.86;32.76;101022.72;5055934;28;20435;-69
2021/04/27 11:18:20;;;;;;;1.07;0.50;;;;;;;15.85;30.46;101020.13;5056344;28;20439;-69
2021/04/27 11:20:49;;;;;;;0.50;0.40;;;;;;;16.96;29.84;101029.28;5055611;28;20975;-69
2021/04/27 11:23:39;;;;;;;0.60;0.40;;;;;;;18.08;28.45;101024.66;5055629;28;20446;-69
2021/04/27 11:26:53;;;;;;;0.70;0.50;;;;;;;18.33;27.41;101020.00;5055887;28;20510;-69
2021/04/27 11:29:26;;;;;;;0.90;0.60;;;;;;;19.46;26.82;101021.84;5055842;28;20433;-70
2021/04/27 11:32:08;;;;;;;0.90;0.60;;;;;;;20.41;25.16;101017.25;5055279;28;20907;-70
2021/04/27 11:35:10;;;;;;;1.57;0.80;;;;;;;21.02;24.78;101020.56;5055728;28;20422;-70
2021/04/27 11:37:38;;;;;;;3.77;1.00;;;;;;;21.55;24.30;101012.59;5055674;28;20524;-70